sensor_id;sensor_type;location;lat;lon;timestamp;temperature;humidity
65231;DHT22;51813;40.666;16.602;2023-09-12T00:02:06;25.40;47.80
65231;DHT22;51813;40.666;16.602;2023-09-12T00:04:32;25.40;47.80
65231;DHT22;51813;40.666;16.602;2023-09-12T00:06:58;25.40;48.00
65231;DHT22;51813;40.666;16.602;2023-09-12T00:09:23;25.30;48.00
65231;DHT22;51813;40.666;16.602;2023-09-12T00:11:49;25.30;47.90
65231;DHT22;51813;40.666;16.602;2023-09-12T00:14:16;25.30;47.90
65231;DHT22;51813;40.666;16.602;2023-09-12T00:16:42;25.40;48.00
65231;DHT22;51813;40.666;16.602;2023-09-12T00:19:08;25.40;47.90
65231;DHT22;51813;40.666;16.602;2023-09-12T00:21:34;25.40;47.90
65231;DHT22;51813;40.666;16.602;2023-09-12T00:23:59;25.40;47.80
65231;DHT22;51813;40.666;16.602;2023-09-12T00:26:25;25.30;47.70
65231;DHT22;51813;40.666;16.602;2023-09-12T00:28:51;25.30;48.10
65231;DHT22;51813;40.666;16.602;2023-09-12T00:31:16;25.30;48.00
65231;DHT22;51813;40.666;16.602;2023-09-12T00:33:42;25.20;47.90
65231;DHT22;51813;40.666;16.602;2023-09-12T00:36:08;25.20;47.90
65231;DHT22;51813;40.666;16.602;2023-09-12T00:38:33;25.20;47.60
65231;DHT22;51813;40.666;16.602;2023-09-12T00:40:59;25.20;47.90
65231;DHT22;51813;40.666;16.602;2023-09-12T00:43:25;25.20;47.80
65231;DHT22;51813;40.666;16.602;2023-09-12T00:45:50;25.30;47.90
65231;DHT22;51813;40.666;16.602;2023-09-12T00:48:17;25.30;47.70
65231;DHT22;51813;40.666;16.602;2023-09-12T00:50:43;25.30;47.60
65231;DHT22;51813;40.666;16.602;2023-09-12T00:53:10;25.30;47.70
65231;DHT22;51813;40.666;16.602;2023-09-12T00:55:37;25.40;47.90
65231;DHT22;51813;40.666;16.602;2023-09-12T00:58:06;25.40;47.70
65231;DHT22;51813;40.666;16.602;2023-09-12T01:00:34;25.30;47.60
65231;DHT22;51813;40.666;16.602;2023-09-12T01:03:00;25.30;47.60
65231;DHT22;51813;40.666;16.602;2023-09-12T01:05:27;25.30;47.80
65231;DHT22;51813;40.666;16.602;2023-09-12T01:07:54;25.20;47.80
65231;DHT22;51813;40.666;16.602;2023-09-12T01:10:20;25.20;47.80
65231;DHT22;51813;40.666;16.602;2023-09-12T01:12:45;25.20;47.70
65231;DHT22;51813;40.666;16.602;2023-09-12T01:15:11;25.30;47.60
65231;DHT22;51813;40.666;16.602;2023-09-12T01:17:43;25.30;47.90
65231;DHT22;51813;40.666;16.602;2023-09-12T01:20:14;25.30;47.80
65231;DHT22;51813;40.666;16.602;2023-09-12T01:22:55;25.30;47.60
65231;DHT22;51813;40.666;16.602;2023-09-12T01:28:24;25.30;47.80
65231;DHT22;51813;40.666;16.602;2023-09-12T01:30:54;25.20;47.70
65231;DHT22;51813;40.666;16.602;2023-09-12T01:33:20;25.20;47.80
65231;DHT22;51813;40.666;16.602;2023-09-12T01:35:46;25.20;47.90
65231;DHT22;51813;40.666;16.602;2023-09-12T01:38:13;25.10;47.80
65231;DHT22;51813;40.666;16.602;2023-09-12T01:40:59;25.20;47.90
65231;DHT22;51813;40.666;16.602;2023-09-12T01:43:26;25.20;47.90
65231;DHT22;51813;40.666;16.602;2023-09-12T01:45:55;25.30;47.80
65231;DHT22;51813;40.666;16.602;2023-09-12T01:48:23;25.30;47.70
65231;DHT22;51813;40.666;16.602;2023-09-12T01:50:52;25.30;47.80
65231;DHT22;51813;40.666;16.602;2023-09-12T01:53:18;25.30;47.90
65231;DHT22;51813;40.666;16.602;2023-09-12T01:55:45;25.30;47.80
65231;DHT22;51813;40.666;16.602;2023-09-12T01:58:12;25.20;47.60
65231;DHT22;51813;40.666;16.602;2023-09-12T02:00:39;25.20;47.80
65231;DHT22;51813;40.666;16.602;2023-09-12T02:03:05;25.10;47.90
65231;DHT22;51813;40.666;16.602;2023-09-12T02:05:31;25.10;47.70
65231;DHT22;51813;40.666;16.602;2023-09-12T02:07:57;25.20;47.80
65231;DHT22;51813;40.666;16.602;2023-09-12T02:10:25;25.20;47.80
65231;DHT22;51813;40.666;16.602;2023-09-12T02:12:51;25.20;47.70
65231;DHT22;51813;40.666;16.602;2023-09-12T02:15:17;25.20;47.80
65231;DHT22;51813;40.666;16.602;2023-09-12T02:17:42;25.30;47.70
65231;DHT22;51813;40.666;16.602;2023-09-12T02:20:09;25.30;47.60
65231;DHT22;51813;40.666;16.602;2023-09-12T02:22:35;25.30;48.00
65231;DHT22;51813;40.666;16.602;2023-09-12T02:25:03;25.20;48.10
65231;DHT22;51813;40.666;16.602;2023-09-12T02:27:30;25.10;48.00
65231;DHT22;51813;40.666;16.602;2023-09-12T02:29:55;25.10;48.00
65231;DHT22;51813;40.666;16.602;2023-09-12T02:32:21;25.10;48.00
65231;DHT22;51813;40.666;16.602;2023-09-12T02:34:47;25.10;47.90
65231;DHT22;51813;40.666;16.602;2023-09-12T02:37:13;25.10;47.90
65231;DHT22;51813;40.666;16.602;2023-09-12T02:39:38;25.20;48.00
65231;DHT22;51813;40.666;16.602;2023-09-12T02:42:04;25.10;47.70
65231;DHT22;51813;40.666;16.602;2023-09-12T02:44:30;25.20;47.80
65231;DHT22;51813;40.666;16.602;2023-09-12T02:46:56;25.20;47.80
65231;DHT22;51813;40.666;16.602;2023-09-12T02:49:21;25.20;47.80
65231;DHT22;51813;40.666;16.602;2023-09-12T02:51:47;25.10;47.90
65231;DHT22;51813;40.666;16.602;2023-09-12T02:54:13;25.10;48.20
65231;DHT22;51813;40.666;16.602;2023-09-12T02:56:38;25.10;48.00
65231;DHT22;51813;40.666;16.602;2023-09-12T02:59:04;25.10;47.90
65231;DHT22;51813;40.666;16.602;2023-09-12T03:01:30;25.10;48.10
65231;DHT22;51813;40.666;16.602;2023-09-12T03:03:57;25.10;47.90
65231;DHT22;51813;40.666;16.602;2023-09-12T03:06:22;25.10;47.80
65231;DHT22;51813;40.666;16.602;2023-09-12T03:08:48;25.10;47.90
65231;DHT22;51813;40.666;16.602;2023-09-12T03:11:14;25.10;48.00
65231;DHT22;51813;40.666;16.602;2023-09-12T03:13:41;25.10;48.00
65231;DHT22;51813;40.666;16.602;2023-09-12T03:16:10;25.10;47.90
65231;DHT22;51813;40.666;16.602;2023-09-12T03:18:36;25.10;48.00
65231;DHT22;51813;40.666;16.602;2023-09-12T03:21:02;25.10;49.00
65231;DHT22;51813;40.666;16.602;2023-09-12T03:23:28;25.10;48.30
65231;DHT22;51813;40.666;16.602;2023-09-12T03:25:54;25.10;48.10
65231;DHT22;51813;40.666;16.602;2023-09-12T03:28:19;25.10;48.10
65231;DHT22;51813;40.666;16.602;2023-09-12T03:30:45;25.00;48.20
65231;DHT22;51813;40.666;16.602;2023-09-12T03:33:11;25.00;48.00
65231;DHT22;51813;40.666;16.602;2023-09-12T03:35:36;25.10;48.20
65231;DHT22;51813;40.666;16.602;2023-09-12T03:38:02;25.10;48.10
65231;DHT22;51813;40.666;16.602;2023-09-12T03:40:29;25.10;47.90
65231;DHT22;51813;40.666;16.602;2023-09-12T03:42:57;25.10;47.90
65231;DHT22;51813;40.666;16.602;2023-09-12T03:45:24;25.10;48.00
65231;DHT22;51813;40.666;16.602;2023-09-12T03:47:50;25.10;47.90
65231;DHT22;51813;40.666;16.602;2023-09-12T03:50:16;25.10;48.20
65231;DHT22;51813;40.666;16.602;2023-09-12T03:52:42;25.00;48.30
65231;DHT22;51813;40.666;16.602;2023-09-12T03:55:08;25.10;48.20
65231;DHT22;51813;40.666;16.602;2023-09-12T03:57:34;25.00;48.20
65231;DHT22;51813;40.666;16.602;2023-09-12T03:59:59;25.00;48.20
65231;DHT22;51813;40.666;16.602;2023-09-12T04:02:25;25.00;48.20
65231;DHT22;51813;40.666;16.602;2023-09-12T04:04:50;25.00;48.20
65231;DHT22;51813;40.666;16.602;2023-09-12T04:07:17;25.10;48.20
65231;DHT22;51813;40.666;16.602;2023-09-12T04:09:43;25.10;48.20
65231;DHT22;51813;40.666;16.602;2023-09-12T04:12:09;25.10;48.10
65231;DHT22;51813;40.666;16.602;2023-09-12T04:14:35;25.00;48.10
65231;DHT22;51813;40.666;16.602;2023-09-12T04:17:01;25.00;48.10
65231;DHT22;51813;40.666;16.602;2023-09-12T04:19:30;25.00;48.40
65231;DHT22;51813;40.666;16.602;2023-09-12T04:21:57;25.00;48.50
65231;DHT22;51813;40.666;16.602;2023-09-12T04:24:22;25.00;48.20
65231;DHT22;51813;40.666;16.602;2023-09-12T04:26:48;25.00;48.30
65231;DHT22;51813;40.666;16.602;2023-09-12T04:29:14;24.90;48.30
65231;DHT22;51813;40.666;16.602;2023-09-12T04:31:39;24.90;48.40
65231;DHT22;51813;40.666;16.602;2023-09-12T04:34:05;25.00;48.50
65231;DHT22;51813;40.666;16.602;2023-09-12T04:36:31;24.90;48.50
65231;DHT22;51813;40.666;16.602;2023-09-12T04:38:56;24.90;48.40
65231;DHT22;51813;40.666;16.602;2023-09-12T04:41:22;25.00;48.30
65231;DHT22;51813;40.666;16.602;2023-09-12T04:43:47;25.00;48.30
65231;DHT22;51813;40.666;16.602;2023-09-12T04:46:13;24.90;48.40
65231;DHT22;51813;40.666;16.602;2023-09-12T04:48:39;24.90;48.60
65231;DHT22;51813;40.666;16.602;2023-09-12T04:51:05;24.90;48.80
65231;DHT22;51813;40.666;16.602;2023-09-12T04:53:31;24.90;48.40
65231;DHT22;51813;40.666;16.602;2023-09-12T04:56:03;24.90;48.50
65231;DHT22;51813;40.666;16.602;2023-09-12T04:58:29;24.90;48.60
65231;DHT22;51813;40.666;16.602;2023-09-12T05:00:55;24.90;48.50
65231;DHT22;51813;40.666;16.602;2023-09-12T05:03:22;24.90;48.40
65231;DHT22;51813;40.666;16.602;2023-09-12T05:05:49;24.90;48.50
65231;DHT22;51813;40.666;16.602;2023-09-12T05:08:15;25.00;48.30
65231;DHT22;51813;40.666;16.602;2023-09-12T05:10:43;24.90;48.50
65231;DHT22;51813;40.666;16.602;2023-09-12T05:13:09;24.90;48.30
65231;DHT22;51813;40.666;16.602;2023-09-12T05:15:34;24.90;48.20
65231;DHT22;51813;40.666;16.602;2023-09-12T05:18:02;24.90;48.60
65231;DHT22;51813;40.666;16.602;2023-09-12T05:20:28;24.90;49.40
65231;DHT22;51813;40.666;16.602;2023-09-12T05:22:53;24.90;48.30
65231;DHT22;51813;40.666;16.602;2023-09-12T05:25:19;24.90;48.40
65231;DHT22;51813;40.666;16.602;2023-09-12T05:27:45;24.90;48.50
65231;DHT22;51813;40.666;16.602;2023-09-12T05:30:11;24.90;48.30
65231;DHT22;51813;40.666;16.602;2023-09-12T05:32:37;24.90;48.40
65231;DHT22;51813;40.666;16.602;2023-09-12T05:35:03;24.90;48.50
65231;DHT22;51813;40.666;16.602;2023-09-12T05:37:29;25.00;48.70
65231;DHT22;51813;40.666;16.602;2023-09-12T05:39:55;25.00;48.60
65231;DHT22;51813;40.666;16.602;2023-09-12T05:42:21;24.90;48.80
65231;DHT22;51813;40.666;16.602;2023-09-12T05:44:48;24.90;48.80
65231;DHT22;51813;40.666;16.602;2023-09-12T05:47:15;24.90;49.10
65231;DHT22;51813;40.666;16.602;2023-09-12T05:49:41;25.00;48.90
65231;DHT22;51813;40.666;16.602;2023-09-12T05:52:07;25.00;48.70
65231;DHT22;51813;40.666;16.602;2023-09-12T05:54:32;24.90;48.80
65231;DHT22;51813;40.666;16.602;2023-09-12T05:56:58;25.00;48.80
65231;DHT22;51813;40.666;16.602;2023-09-12T05:59:24;24.90;48.80
65231;DHT22;51813;40.666;16.602;2023-09-12T06:01:49;24.90;48.90
65231;DHT22;51813;40.666;16.602;2023-09-12T06:04:15;25.00;48.80
65231;DHT22;51813;40.666;16.602;2023-09-12T06:06:41;24.90;49.00
65231;DHT22;51813;40.666;16.602;2023-09-12T06:09:06;25.00;49.00
65231;DHT22;51813;40.666;16.602;2023-09-12T06:11:34;25.00;48.80
65231;DHT22;51813;40.666;16.602;2023-09-12T06:14:00;25.10;48.70
65231;DHT22;51813;40.666;16.602;2023-09-12T06:16:25;25.00;49.00
65231;DHT22;51813;40.666;16.602;2023-09-12T06:18:52;25.00;49.10
65231;DHT22;51813;40.666;16.602;2023-09-12T06:21:19;25.00;49.10
65231;DHT22;51813;40.666;16.602;2023-09-12T06:26:31;24.90;49.20
65231;DHT22;51813;40.666;16.602;2023-09-12T06:28:56;24.90;49.40
65231;DHT22;51813;40.666;16.602;2023-09-12T06:31:22;24.90;49.10
65231;DHT22;51813;40.666;16.602;2023-09-12T06:33:48;25.00;49.00
65231;DHT22;51813;40.666;16.602;2023-09-12T06:36:14;25.10;49.00
65231;DHT22;51813;40.666;16.602;2023-09-12T06:38:39;25.00;49.10
65231;DHT22;51813;40.666;16.602;2023-09-12T06:41:05;25.00;49.20
65231;DHT22;51813;40.666;16.602;2023-09-12T06:43:31;25.10;49.20
65231;DHT22;51813;40.666;16.602;2023-09-12T06:45:56;25.10;49.30
65231;DHT22;51813;40.666;16.602;2023-09-12T06:48:22;25.00;49.20
65231;DHT22;51813;40.666;16.602;2023-09-12T06:50:47;25.00;49.10
65231;DHT22;51813;40.666;16.602;2023-09-12T06:53:13;25.00;49.10
65231;DHT22;51813;40.666;16.602;2023-09-12T06:55:39;24.90;49.30
65231;DHT22;51813;40.666;16.602;2023-09-12T06:58:05;24.80;49.40
65231;DHT22;51813;40.666;16.602;2023-09-12T07:00:30;24.90;49.60
65231;DHT22;51813;40.666;16.602;2023-09-12T07:02:56;24.90;49.80
65231;DHT22;51813;40.666;16.602;2023-09-12T07:05:22;24.90;49.70
65231;DHT22;51813;40.666;16.602;2023-09-12T07:07:48;24.90;49.80
65231;DHT22;51813;40.666;16.602;2023-09-12T07:10:13;24.90;49.90
65231;DHT22;51813;40.666;16.602;2023-09-12T07:12:39;24.90;49.80
65231;DHT22;51813;40.666;16.602;2023-09-12T07:15:05;25.00;49.60
65231;DHT22;51813;40.666;16.602;2023-09-12T07:17:31;24.90;49.30
65231;DHT22;51813;40.666;16.602;2023-09-12T07:19:57;24.90;49.50
65231;DHT22;51813;40.666;16.602;2023-09-12T07:22:23;24.90;49.90
65231;DHT22;51813;40.666;16.602;2023-09-12T07:24:48;24.90;49.90
65231;DHT22;51813;40.666;16.602;2023-09-12T07:27:14;24.90;50.00
65231;DHT22;51813;40.666;16.602;2023-09-12T07:29:40;24.90;50.00
65231;DHT22;51813;40.666;16.602;2023-09-12T07:32:05;24.90;50.00
65231;DHT22;51813;40.666;16.602;2023-09-12T07:34:31;24.90;50.10
65231;DHT22;51813;40.666;16.602;2023-09-12T07:36:57;24.90;49.90
65231;DHT22;51813;40.666;16.602;2023-09-12T07:39:22;24.90;49.90
65231;DHT22;51813;40.666;16.602;2023-09-12T07:41:48;25.00;50.10
65231;DHT22;51813;40.666;16.602;2023-09-12T07:44:14;25.00;50.10
65231;DHT22;51813;40.666;16.602;2023-09-12T07:46:42;25.00;49.80
65231;DHT22;51813;40.666;16.602;2023-09-12T07:49:08;25.00;49.80
65231;DHT22;51813;40.666;16.602;2023-09-12T07:51:35;25.00;49.90
65231;DHT22;51813;40.666;16.602;2023-09-12T07:54:01;25.00;49.80
65231;DHT22;51813;40.666;16.602;2023-09-12T07:56:27;25.00;49.90
65231;DHT22;51813;40.666;16.602;2023-09-12T07:58:52;24.90;49.80
65231;DHT22;51813;40.666;16.602;2023-09-12T08:01:18;25.00;49.90
65231;DHT22;51813;40.666;16.602;2023-09-12T08:03:44;24.90;49.70
65231;DHT22;51813;40.666;16.602;2023-09-12T08:06:10;24.90;50.40
65231;DHT22;51813;40.666;16.602;2023-09-12T08:08:36;24.90;50.10
65231;DHT22;51813;40.666;16.602;2023-09-12T08:11:02;24.90;49.90
65231;DHT22;51813;40.666;16.602;2023-09-12T08:13:29;25.00;49.20
65231;DHT22;51813;40.666;16.602;2023-09-12T08:15:55;25.00;49.10
65231;DHT22;51813;40.666;16.602;2023-09-12T08:18:25;25.10;49.10
65231;DHT22;51813;40.666;16.602;2023-09-12T08:20:51;25.10;48.70
65231;DHT22;51813;40.666;16.602;2023-09-12T08:23:17;25.10;49.30
65231;DHT22;51813;40.666;16.602;2023-09-12T08:25:42;25.10;49.90
65231;DHT22;51813;40.666;16.602;2023-09-12T08:28:08;25.10;49.80
65231;DHT22;51813;40.666;16.602;2023-09-12T08:30:34;25.20;52.30
65231;DHT22;51813;40.666;16.602;2023-09-12T08:32:59;25.20;51.30
65231;DHT22;51813;40.666;16.602;2023-09-12T08:35:28;25.10;51.70
65231;DHT22;51813;40.666;16.602;2023-09-12T08:37:53;25.20;51.70
65231;DHT22;51813;40.666;16.602;2023-09-12T08:40:19;25.40;50.30
65231;DHT22;51813;40.666;16.602;2023-09-12T08:42:45;25.30;50.40
65231;DHT22;51813;40.666;16.602;2023-09-12T08:45:16;25.30;50.20
65231;DHT22;51813;40.666;16.602;2023-09-12T08:47:49;25.30;51.00
65231;DHT22;51813;40.666;16.602;2023-09-12T08:50:16;25.30;50.80
65231;DHT22;51813;40.666;16.602;2023-09-12T08:52:43;25.20;50.00
65231;DHT22;51813;40.666;16.602;2023-09-12T08:55:10;25.20;49.60
65231;DHT22;51813;40.666;16.602;2023-09-12T08:57:39;25.30;49.10
65231;DHT22;51813;40.666;16.602;2023-09-12T09:00:06;25.30;50.20
65231;DHT22;51813;40.666;16.602;2023-09-12T09:02:37;25.30;48.90
65231;DHT22;51813;40.666;16.602;2023-09-12T09:05:07;25.30;50.10
65231;DHT22;51813;40.666;16.602;2023-09-12T09:07:39;25.30;47.70
65231;DHT22;51813;40.666;16.602;2023-09-12T09:10:06;25.30;47.70
65231;DHT22;51813;40.666;16.602;2023-09-12T09:12:33;25.30;47.10
65231;DHT22;51813;40.666;16.602;2023-09-12T09:15:20;25.30;47.90
65231;DHT22;51813;40.666;16.602;2023-09-12T09:17:46;25.30;46.20
65231;DHT22;51813;40.666;16.602;2023-09-12T09:20:29;25.40;46.90
65231;DHT22;51813;40.666;16.602;2023-09-12T09:22:59;25.40;48.90
65231;DHT22;51813;40.666;16.602;2023-09-12T09:25:25;25.30;48.20
65231;DHT22;51813;40.666;16.602;2023-09-12T09:27:50;25.40;49.00
65231;DHT22;51813;40.666;16.602;2023-09-12T09:30:16;25.30;48.90
65231;DHT22;51813;40.666;16.602;2023-09-12T09:32:43;25.40;46.10
65231;DHT22;51813;40.666;16.602;2023-09-12T09:35:11;25.40;47.80
65231;DHT22;51813;40.666;16.602;2023-09-12T09:37:37;25.40;48.10
65231;DHT22;51813;40.666;16.602;2023-09-12T09:40:07;25.40;49.60
65231;DHT22;51813;40.666;16.602;2023-09-12T09:42:32;25.40;48.10
65231;DHT22;51813;40.666;16.602;2023-09-12T09:44:58;25.40;47.40
65231;DHT22;51813;40.666;16.602;2023-09-12T09:47:24;25.40;50.70
65231;DHT22;51813;40.666;16.602;2023-09-12T09:49:51;25.50;48.70
65231;DHT22;51813;40.666;16.602;2023-09-12T09:52:25;25.50;49.70
65231;DHT22;51813;40.666;16.602;2023-09-12T09:54:52;25.60;45.40
65231;DHT22;51813;40.666;16.602;2023-09-12T09:57:18;25.60;47.60
65231;DHT22;51813;40.666;16.602;2023-09-12T09:59:49;25.60;45.20
65231;DHT22;51813;40.666;16.602;2023-09-12T10:02:18;25.60;44.30
65231;DHT22;51813;40.666;16.602;2023-09-12T10:04:48;25.70;44.10
65231;DHT22;51813;40.666;16.602;2023-09-12T10:07:16;25.60;44.00
65231;DHT22;51813;40.666;16.602;2023-09-12T10:09:43;25.70;46.30
65231;DHT22;51813;40.666;16.602;2023-09-12T10:12:09;25.70;46.70
65231;DHT22;51813;40.666;16.602;2023-09-12T10:14:39;25.70;44.20
65231;DHT22;51813;40.666;16.602;2023-09-12T10:17:06;25.80;47.50
65231;DHT22;51813;40.666;16.602;2023-09-12T10:19:38;25.70;45.00
65231;DHT22;51813;40.666;16.602;2023-09-12T10:22:17;25.70;44.30
65231;DHT22;51813;40.666;16.602;2023-09-12T10:24:44;25.80;45.80
65231;DHT22;51813;40.666;16.602;2023-09-12T10:27:12;25.80;44.30
65231;DHT22;51813;40.666;16.602;2023-09-12T10:29:39;25.80;41.00
65231;DHT22;51813;40.666;16.602;2023-09-12T10:32:05;25.90;43.10
65231;DHT22;51813;40.666;16.602;2023-09-12T10:34:32;25.90;43.40
65231;DHT22;51813;40.666;16.602;2023-09-12T10:36:58;25.80;43.80
65231;DHT22;51813;40.666;16.602;2023-09-12T10:39:31;25.80;41.80
65231;DHT22;51813;40.666;16.602;2023-09-12T10:41:59;25.80;42.90
65231;DHT22;51813;40.666;16.602;2023-09-12T10:44:25;25.90;39.10
65231;DHT22;51813;40.666;16.602;2023-09-12T10:46:52;25.90;39.40
65231;DHT22;51813;40.666;16.602;2023-09-12T10:49:22;26.00;43.50
65231;DHT22;51813;40.666;16.602;2023-09-12T10:51:47;26.00;40.40
65231;DHT22;51813;40.666;16.602;2023-09-12T10:54:37;26.10;39.00
65231;DHT22;51813;40.666;16.602;2023-09-12T10:57:07;26.30;36.70
65231;DHT22;51813;40.666;16.602;2023-09-12T10:59:33;26.40;37.80
65231;DHT22;51813;40.666;16.602;2023-09-12T11:02:28;26.50;39.70
65231;DHT22;51813;40.666;16.602;2023-09-12T11:04:55;26.60;39.30
65231;DHT22;51813;40.666;16.602;2023-09-12T11:12:52;27.00;40.70
65231;DHT22;51813;40.666;16.602;2023-09-12T11:15:20;27.00;39.50
65231;DHT22;51813;40.666;16.602;2023-09-12T11:17:59;27.00;39.90
65231;DHT22;51813;40.666;16.602;2023-09-12T11:20:25;27.10;36.20
65231;DHT22;51813;40.666;16.602;2023-09-12T11:22:50;27.20;38.20
65231;DHT22;51813;40.666;16.602;2023-09-12T11:25:24;27.30;38.60
65231;DHT22;51813;40.666;16.602;2023-09-12T11:30:24;27.40;37.00
65231;DHT22;51813;40.666;16.602;2023-09-12T11:32:51;27.30;33.60
65231;DHT22;51813;40.666;16.602;2023-09-12T11:35:26;27.30;37.00
65231;DHT22;51813;40.666;16.602;2023-09-12T11:37:54;27.50;34.20
65231;DHT22;51813;40.666;16.602;2023-09-12T11:40:42;27.60;37.60
65231;DHT22;51813;40.666;16.602;2023-09-12T11:43:27;27.60;37.50
65231;DHT22;51813;40.666;16.602;2023-09-12T11:45:54;27.70;38.60
65231;DHT22;51813;40.666;16.602;2023-09-12T11:48:20;27.80;36.60
65231;DHT22;51813;40.666;16.602;2023-09-12T11:50:54;27.70;37.80
65231;DHT22;51813;40.666;16.602;2023-09-12T11:53:22;27.60;38.50
65231;DHT22;51813;40.666;16.602;2023-09-12T11:55:56;27.60;39.60
65231;DHT22;51813;40.666;16.602;2023-09-12T11:58:22;27.50;40.40
65231;DHT22;51813;40.666;16.602;2023-09-12T12:00:51;27.50;41.20
65231;DHT22;51813;40.666;16.602;2023-09-12T12:03:22;27.60;41.30
65231;DHT22;51813;40.666;16.602;2023-09-12T12:05:49;27.50;41.70
65231;DHT22;51813;40.666;16.602;2023-09-12T12:08:16;27.30;42.50
65231;DHT22;51813;40.666;16.602;2023-09-12T12:10:42;27.30;43.10
65231;DHT22;51813;40.666;16.602;2023-09-12T12:13:15;27.20;43.10
65231;DHT22;51813;40.666;16.602;2023-09-12T12:15:41;27.40;43.10
65231;DHT22;51813;40.666;16.602;2023-09-12T12:18:07;27.40;43.60
65231;DHT22;51813;40.666;16.602;2023-09-12T12:20:33;27.50;43.20
65231;DHT22;51813;40.666;16.602;2023-09-12T12:22:59;27.50;42.80
65231;DHT22;51813;40.666;16.602;2023-09-12T12:25:24;27.50;41.90
65231;DHT22;51813;40.666;16.602;2023-09-12T12:27:50;27.60;41.80
65231;DHT22;51813;40.666;16.602;2023-09-12T12:30:18;27.60;43.20
65231;DHT22;51813;40.666;16.602;2023-09-12T12:32:45;27.80;42.60
65231;DHT22;51813;40.666;16.602;2023-09-12T12:35:21;27.70;43.20
65231;DHT22;51813;40.666;16.602;2023-09-12T12:37:52;27.80;43.40
65231;DHT22;51813;40.666;16.602;2023-09-12T12:40:19;27.90;41.90
65231;DHT22;51813;40.666;16.602;2023-09-12T12:42:46;27.90;42.00
65231;DHT22;51813;40.666;16.602;2023-09-12T12:47:38;28.00;42.20
65231;DHT22;51813;40.666;16.602;2023-09-12T12:50:14;28.00;42.40
65231;DHT22;51813;40.666;16.602;2023-09-12T12:52:41;28.00;41.70
65231;DHT22;51813;40.666;16.602;2023-09-12T12:55:10;28.00;42.30
65231;DHT22;51813;40.666;16.602;2023-09-12T12:57:40;27.90;42.10
65231;DHT22;51813;40.666;16.602;2023-09-12T13:00:14;27.80;42.10
65231;DHT22;51813;40.666;16.602;2023-09-12T13:02:41;27.80;42.70
65231;DHT22;51813;40.666;16.602;2023-09-12T13:05:20;27.80;43.20
65231;DHT22;51813;40.666;16.602;2023-09-12T13:07:46;27.80;42.90
65231;DHT22;51813;40.666;16.602;2023-09-12T13:10:12;27.90;42.90
65231;DHT22;51813;40.666;16.602;2023-09-12T13:12:38;27.80;42.60
65231;DHT22;51813;40.666;16.602;2023-09-12T13:15:05;27.90;42.00
65231;DHT22;51813;40.666;16.602;2023-09-12T13:17:30;27.80;42.70
65231;DHT22;51813;40.666;16.602;2023-09-12T13:19:56;27.90;42.70
65231;DHT22;51813;40.666;16.602;2023-09-12T13:22:22;28.00;42.90
65231;DHT22;51813;40.666;16.602;2023-09-12T13:24:47;28.00;42.10
65231;DHT22;51813;40.666;16.602;2023-09-12T13:27:13;28.00;41.70
65231;DHT22;51813;40.666;16.602;2023-09-12T13:29:39;28.00;42.20
65231;DHT22;51813;40.666;16.602;2023-09-12T13:32:05;28.00;42.30
65231;DHT22;51813;40.666;16.602;2023-09-12T13:34:31;27.90;42.80
65231;DHT22;51813;40.666;16.602;2023-09-12T13:36:56;27.90;43.10
65231;DHT22;51813;40.666;16.602;2023-09-12T13:39:24;27.90;42.70
65231;DHT22;51813;40.666;16.602;2023-09-12T13:41:49;27.90;42.70
65231;DHT22;51813;40.666;16.602;2023-09-12T13:44:16;27.90;42.90
65231;DHT22;51813;40.666;16.602;2023-09-12T13:46:42;27.90;42.90
65231;DHT22;51813;40.666;16.602;2023-09-12T13:49:12;27.90;43.00
65231;DHT22;51813;40.666;16.602;2023-09-12T13:51:38;28.00;43.00
65231;DHT22;51813;40.666;16.602;2023-09-12T13:54:04;28.00;43.00
65231;DHT22;51813;40.666;16.602;2023-09-12T13:56:29;28.00;42.70
65231;DHT22;51813;40.666;16.602;2023-09-12T13:58:55;27.90;42.60
65231;DHT22;51813;40.666;16.602;2023-09-12T14:01:21;27.80;43.20
65231;DHT22;51813;40.666;16.602;2023-09-12T14:03:48;27.80;42.90
65231;DHT22;51813;40.666;16.602;2023-09-12T14:06:14;27.80;41.90
65231;DHT22;51813;40.666;16.602;2023-09-12T14:08:39;27.90;41.70
65231;DHT22;51813;40.666;16.602;2023-09-12T14:11:05;27.90;40.50
65231;DHT22;51813;40.666;16.602;2023-09-12T14:13:31;27.90;40.40
65231;DHT22;51813;40.666;16.602;2023-09-12T14:15:56;28.10;40.40
65231;DHT22;51813;40.666;16.602;2023-09-12T14:18:22;28.00;41.10
65231;DHT22;51813;40.666;16.602;2023-09-12T14:20:48;27.80;41.50
65231;DHT22;51813;40.666;16.602;2023-09-12T14:23:15;27.80;41.40
65231;DHT22;51813;40.666;16.602;2023-09-12T14:25:41;27.80;41.50
65231;DHT22;51813;40.666;16.602;2023-09-12T14:28:07;27.80;41.80
65231;DHT22;51813;40.666;16.602;2023-09-12T14:30:33;27.70;42.30
65231;DHT22;51813;40.666;16.602;2023-09-12T14:33:03;27.70;40.10
65231;DHT22;51813;40.666;16.602;2023-09-12T14:35:29;27.90;40.10
65231;DHT22;51813;40.666;16.602;2023-09-12T14:37:55;28.10;39.70
65231;DHT22;51813;40.666;16.602;2023-09-12T14:40:21;28.10;40.20
65231;DHT22;51813;40.666;16.602;2023-09-12T14:42:46;28.10;38.70
65231;DHT22;51813;40.666;16.602;2023-09-12T14:45:13;28.10;39.30
65231;DHT22;51813;40.666;16.602;2023-09-12T14:47:39;28.10;38.30
65231;DHT22;51813;40.666;16.602;2023-09-12T14:50:05;28.10;39.40
65231;DHT22;51813;40.666;16.602;2023-09-12T14:52:31;28.10;39.30
65231;DHT22;51813;40.666;16.602;2023-09-12T14:54:57;28.00;39.80
65231;DHT22;51813;40.666;16.602;2023-09-12T14:57:23;27.90;40.20
65231;DHT22;51813;40.666;16.602;2023-09-12T14:59:50;27.90;40.00
65231;DHT22;51813;40.666;16.602;2023-09-12T15:02:16;27.90;40.20
65231;DHT22;51813;40.666;16.602;2023-09-12T15:04:41;27.90;40.60
65231;DHT22;51813;40.666;16.602;2023-09-12T15:07:07;27.80;39.60
65231;DHT22;51813;40.666;16.602;2023-09-12T15:09:33;27.90;40.20
65231;DHT22;51813;40.666;16.602;2023-09-12T15:11:59;27.90;39.50
65231;DHT22;51813;40.666;16.602;2023-09-12T15:14:25;27.80;40.40
65231;DHT22;51813;40.666;16.602;2023-09-12T15:16:50;27.80;39.80
65231;DHT22;51813;40.666;16.602;2023-09-12T15:19:16;27.80;41.10
65231;DHT22;51813;40.666;16.602;2023-09-12T15:21:42;27.80;39.80
65231;DHT22;51813;40.666;16.602;2023-09-12T15:24:08;27.80;41.90
65231;DHT22;51813;40.666;16.602;2023-09-12T15:26:34;27.80;41.70
65231;DHT22;51813;40.666;16.602;2023-09-12T15:28:59;27.80;41.10
65231;DHT22;51813;40.666;16.602;2023-09-12T15:31:27;27.70;42.30